Time;durP1;ratioP1;P1;durP2;ratioP2;P2;SDS_P1;SDS_P2;PMS_P1;PMS_P2;Temp;Humidity;BMP_temperature;BMP_pressure;BME280_temperature;BME280_humidity;BME280_pressure;Samples;Min_cycle;Max_cycle;Signal;HPM_P1;HPM_P2
2022/04/17 00:00:24;;;;;;;8.00;5.82;;;6.40;93.00;;;;;;5051219;28;20080;-70
2022/04/17 00:02:51;;;;;;;7.90;5.45;;;6.30;93.10;;;;;;5051860;28;20493;-70
2022/04/17 00:05:18;;;;;;;8.73;5.78;;;6.30;93.50;;;;;;5054354;28;20107;-70
2022/04/17 00:07:45;;;;;;;8.25;5.50;;;6.20;93.80;;;;;;5054782;28;20088;-70
2022/04/17 00:10:12;;;;;;;7.03;5.00;;;6.40;94.10;;;;;;5056086;28;20091;-70
2022/04/17 00:12:40;;;;;;;8.10;5.45;;;6.40;93.90;;;;;;5055245;28;20129;-69
2022/04/17 00:15:10;;;;;;;8.43;5.60;;;6.40;94.00;;;;;;5054993;28;20099;-70
2022/04/17 00:17:42;;;;;;;7.78;5.75;;;6.30;93.80;;;;;;5056083;28;20048;-70
2022/04/17 00:20:10;;;;;;;10.15;5.55;;;6.30;93.70;;;;;;5053766;28;20106;-70
2022/04/17 00:22:37;;;;;;;9.32;5.90;;;6.20;93.70;;;;;;5054706;28;20049;-70
2022/04/17 00:25:04;;;;;;;8.40;5.18;;;6.20;93.80;;;;;;5055010;28;20084;-70
2022/04/17 00:27:31;;;;;;;7.65;5.30;;;6.20;94.10;;;;;;5055076;28;20080;-70
2022/04/17 00:29:58;;;;;;;10.70;5.80;;;6.20;94.50;;;;;;5055284;28;20099;-70
2022/04/17 00:32:28;;;;;;;7.95;5.82;;;6.10;94.70;;;;;;5054020;28;20465;-71
2022/04/17 00:34:55;;;;;;;6.50;5.15;;;6.20;94.70;;;;;;5054799;28;20088;-70
2022/04/17 00:37:22;;;;;;;7.93;5.68;;;6.10;94.40;;;;;;5055555;28;20128;-71
2022/04/17 00:39:48;;;;;;;8.48;4.82;;;6.20;94.30;;;;;;5053695;28;20501;-71
2022/04/17 00:42:15;;;;;;;12.63;5.20;;;6.20;94.10;;;;;;5054250;28;20119;-71
2022/04/17 00:44:42;;;;;;;6.97;5.32;;;6.20;94.10;;;;;;5054282;28;20131;-70
2022/04/17 00:47:14;;;;;;;6.85;4.93;;;6.20;94.10;;;;;;5053515;28;20048;-71
2022/04/17 00:49:42;;;;;;;8.63;5.68;;;6.20;94.20;;;;;;5054301;28;20063;-71
2022/04/17 00:52:09;;;;;;;5.97;4.90;;;6.10;94.20;;;;;;5055306;28;20052;-71
2022/04/17 00:54:39;;;;;;;7.20;5.28;;;6.10;94.20;;;;;;5054230;28;20088;-71
2022/04/17 00:57:08;;;;;;;7.70;4.87;;;6.10;94.20;;;;;;5055549;28;20083;-71
2022/04/17 00:59:35;;;;;;;6.65;4.50;;;6.00;94.30;;;;;;5053272;28;20311;-71
2022/04/17 01:02:02;;;;;;;8.98;5.55;;;6.00;94.40;;;;;;5053490;28;20553;-71
2022/04/17 01:04:28;;;;;;;7.63;5.05;;;6.00;94.80;;;;;;5053924;28;20586;-71
2022/04/17 01:06:56;;;;;;;7.05;5.13;;;5.90;95.10;;;;;;5055117;28;20084;-70
2022/04/17 01:09:23;;;;;;;6.50;5.65;;;5.90;95.40;;;;;;5053050;28;20128;-70
2022/04/17 01:11:51;;;;;;;8.20;5.22;;;5.80;95.60;;;;;;5053938;28;20139;-70
2022/04/17 01:14:20;;;;;;;8.30;5.50;;;5.80;95.70;;;;;;5053188;28;20102;-70
2022/04/17 01:16:47;;;;;;;7.13;5.75;;;5.70;95.70;;;;;;5054259;28;20532;-70
2022/04/17 01:19:14;;;;;;;8.25;4.88;;;5.70;95.70;;;;;;5054623;28;20074;-70
2022/04/17 01:21:43;;;;;;;12.10;5.53;;;5.70;95.90;;;;;;5052721;28;20875;-69
2022/04/17 01:26:57;;;;;;;8.52;5.57;;;5.60;96.10;;;;;;5070046;28;20057;-70
2022/04/17 01:29:25;;;;;;;7.70;4.95;;;5.50;96.10;;;;;;5052296;28;20041;-70
2022/04/17 01:31:52;;;;;;;8.32;4.75;;;5.50;96.10;;;;;;5054480;28;20080;-70
2022/04/17 01:34:21;;;;;;;7.78;5.03;;;5.40;96.10;;;;;;5053628;28;20052;-70
2022/04/17 01:36:50;;;;;;;10.27;5.47;;;5.40;96.30;;;;;;5053989;28;20053;-69
2022/04/17 01:39:18;;;;;;;9.27;5.03;;;5.40;96.60;;;;;;5053011;28;20129;-70
2022/04/17 01:41:45;;;;;;;8.88;5.30;;;5.40;96.60;;;;;;5053557;28;20080;-71
2022/04/17 01:44:12;;;;;;;7.70;4.80;;;5.40;97.00;;;;;;5052411;28;20468;-70
2022/04/17 01:46:39;;;;;;;9.50;5.93;;;5.30;97.30;;;;;;5054716;28;20114;-69
2022/04/17 01:49:06;;;;;;;8.32;5.40;;;5.30;97.30;;;;;;5053754;28;20580;-69
2022/04/17 01:51:38;;;;;;;6.82;5.75;;;5.30;97.60;;;;;;5053378;28;20544;-70
2022/04/17 01:54:08;;;;;;;8.63;5.70;;;5.20;97.90;;;;;;5053881;28;20098;-70
2022/04/17 01:56:35;;;;;;;8.93;5.30;;;5.20;98.20;;;;;;5054377;28;20060;-70
2022/04/17 01:59:03;;;;;;;7.00;5.10;;;5.10;98.80;;;;;;5053501;28;20124;-69
2022/04/17 02:01:30;;;;;;;11.40;5.90;;;5.10;98.70;;;;;;5052889;28;20057;-70
2022/04/17 02:03:57;;;;;;;8.00;5.82;;;5.10;98.80;;;;;;5052407;28;20084;-70
2022/04/17 02:06:24;;;;;;;8.45;5.57;;;5.10;99.30;;;;;;5054236;28;20049;-69
2022/04/17 02:08:51;;;;;;;8.30;6.10;;;5.10;99.40;;;;;;5052281;28;20080;-70
2022/04/17 02:11:19;;;;;;;9.38;6.00;;;5.10;99.20;;;;;;5052221;28;20489;-70
2022/04/17 02:13:47;;;;;;;13.07;6.35;;;5.10;99.30;;;;;;5054010;28;20049;-69
2022/04/17 02:16:13;;;;;;;7.95;5.63;;;5.10;99.50;;;;;;5052607;28;20110;-69
2022/04/17 02:18:40;;;;;;;8.85;5.97;;;5.00;99.50;;;;;;5052822;28;20128;-70
2022/04/17 02:21:08;;;;;;;8.35;5.57;;;5.00;99.80;;;;;;5052730;28;20044;-69
2022/04/17 02:23:35;;;;;;;8.65;5.40;;;5.00;99.90;;;;;;5052314;28;20049;-70
2022/04/17 02:26:01;;;;;;;10.55;6.53;;;4.90;99.90;;;;;;5052278;28;20455;-68
2022/04/17 02:28:34;;;;;;;9.73;5.85;;;4.90;99.90;;;;;;5053286;28;20052;-69
2022/04/17 02:31:01;;;;;;;9.15;6.05;;;4.90;99.90;;;;;;5053430;28;20110;-69
2022/04/17 02:33:28;;;;;;;10.90;6.00;;;4.80;99.90;;;;;;5051801;28;20160;-69
2022/04/17 02:35:55;;;;;;;9.35;6.03;;;4.80;99.90;;;;;;5053517;28;20126;-69
2022/04/17 02:38:22;;;;;;;10.40;5.65;;;4.80;99.90;;;;;;5052735;28;20133;-69
2022/04/17 02:40:49;;;;;;;10.20;6.03;;;4.80;99.90;;;;;;5051684;28;20139;-69
2022/04/17 02:43:16;;;;;;;8.65;5.70;;;4.80;99.90;;;;;;5053329;28;20077;-70
2022/04/17 02:45:44;;;;;;;7.07;5.43;;;4.80;99.90;;;;;;5052231;28;20088;-70
2022/04/17 02:48:10;;;;;;;7.85;6.18;;;4.70;99.90;;;;;;5051373;28;20084;-70
2022/04/17 02:50:37;;;;;;;9.77;5.75;;;4.70;99.90;;;;;;5052874;28;20079;-70
2022/04/17 02:53:04;;;;;;;9.27;5.82;;;4.70;99.90;;;;;;5052725;28;20084;-70
2022/04/17 02:55:31;;;;;;;7.63;5.85;;;4.70;99.90;;;;;;5052081;28;20152;-70
2022/04/17 02:57:58;;;;;;;8.32;5.72;;;4.70;99.90;;;;;;5052848;28;20540;-70
2022/04/17 03:00:26;;;;;;;8.60;5.70;;;4.70;99.90;;;;;;5052245;28;20056;-70
2022/04/17 03:05:39;;;;;;;9.07;5.55;;;4.60;99.90;;;;;;5048802;28;20045;-70
2022/04/17 03:08:08;;;;;;;8.85;5.78;;;4.50;99.90;;;;;;5064265;28;20137;-70
2022/04/17 03:10:36;;;;;;;10.20;6.43;;;4.50;99.90;;;;;;5033224;28;20390;-70
2022/04/17 03:13:04;;;;;;;8.88;6.13;;;4.50;99.90;;;;;;5064924;28;20136;-70
2022/04/17 03:15:31;;;;;;;9.50;6.10;;;4.50;99.90;;;;;;5032394;28;20107;-69
2022/04/17 03:17:59;;;;;;;10.93;5.85;;;4.40;99.90;;;;;;5059831;28;20045;-69
2022/04/17 03:20:26;;;;;;;10.80;6.22;;;4.40;99.90;;;;;;5052853;28;20049;-70
2022/04/17 03:22:53;;;;;;;8.25;5.95;;;4.40;99.90;;;;;;5051242;28;20136;-70
2022/04/17 03:25:20;;;;;;;10.20;6.70;;;4.40;99.90;;;;;;5051458;28;20060;-69
2022/04/17 03:27:47;;;;;;;9.57;6.50;;;4.50;99.90;;;;;;5051585;28;20088;-69
2022/04/17 03:30:17;;;;;;;15.00;7.68;;;4.50;99.90;;;;;;5052076;28;20080;-69
2022/04/17 03:32:45;;;;;;;11.48;7.00;;;4.50;99.90;;;;;;5052815;28;20115;-69
2022/04/17 03:35:15;;;;;;;10.80;7.07;;;4.40;99.90;;;;;;5052142;28;20106;-69
2022/04/17 03:37:43;;;;;;;8.10;6.80;;;4.40;99.90;;;;;;5051793;28;20103;-70
2022/04/17 03:40:11;;;;;;;11.20;6.32;;;4.40;99.90;;;;;;5056667;28;20049;-70
2022/04/17 03:42:38;;;;;;;10.68;6.60;;;4.30;99.90;;;;;;5056348;28;20497;-69
2022/04/17 03:45:07;;;;;;;11.23;6.95;;;4.30;99.90;;;;;;5055639;28;20083;-70
2022/04/17 03:47:35;;;;;;;10.70;7.00;;;4.30;99.90;;;;;;5055386;28;20129;-69
2022/04/17 03:50:03;;;;;;;9.88;7.03;;;4.30;99.90;;;;;;5055836;28;20128;-69
2022/04/17 03:52:40;;;;;;;12.55;7.35;;;4.30;99.90;;;;;;5055450;28;20144;-69
2022/04/17 03:55:07;;;;;;;11.43;6.97;;;4.30;99.90;;;;;;5055360;28;20049;-69
2022/04/17 03:57:34;;;;;;;9.55;7.00;;;4.30;99.90;;;;;;5055816;28;20471;-69
2022/04/17 04:00:02;;;;;;;9.63;6.65;;;4.30;99.90;;;;;;5054811;28;20091;-69
2022/04/17 04:02:29;;;;;;;11.55;7.65;;;4.30;99.90;;;;;;5054997;28;20052;-68
2022/04/17 04:04:57;;;;;;;10.20;7.35;;;4.30;99.90;;;;;;5054297;28;20493;-68
2022/04/17 04:07:24;;;;;;;10.80;7.65;;;4.30;99.90;;;;;;5056302;28;20114;-68
2022/04/17 04:09:52;;;;;;;10.18;6.90;;;4.30;99.90;;;;;;5054661;28;20056;-68
2022/04/17 04:12:19;;;;;;;9.65;7.13;;;4.20;99.90;;;;;;5054343;28;20049;-69
2022/04/17 04:14:46;;;;;;;11.95;7.20;;;4.20;99.90;;;;;;5055948;28;20041;-68
2022/04/17 04:17:13;;;;;;;9.57;7.25;;;4.20;99.90;;;;;;5054825;28;20091;-69
2022/04/17 04:19:40;;;;;;;10.98;8.10;;;4.20;99.90;;;;;;5053870;28;20377;-68
2022/04/17 04:22:07;;;;;;;11.77;7.80;;;4.20;99.90;;;;;;5055945;28;20128;-68
2022/04/17 04:24:34;;;;;;;10.82;7.72;;;4.20;99.90;;;;;;5054068;28;20049;-68
2022/04/17 04:29:47;;;;;;;9.18;6.90;;;4.20;99.90;;;;;;5055457;28;20041;-69
2022/04/17 04:32:14;;;;;;;12.10;7.95;;;4.20;99.90;;;;;;5055212;28;20080;-68
2022/04/17 04:34:41;;;;;;;11.25;7.85;;;4.20;99.90;;;;;;5054408;28;20053;-69
2022/04/17 04:37:08;;;;;;;9.25;7.18;;;4.20;99.90;;;;;;5055749;28;20551;-69
2022/04/17 04:39:35;;;;;;;10.90;8.25;;;4.20;99.90;;;;;;5054606;28;20110;-69
2022/04/17 04:42:03;;;;;;;11.55;8.02;;;4.20;99.90;;;;;;5054415;28;20052;-70
2022/04/17 04:44:30;;;;;;;11.88;8.35;;;4.20;99.90;;;;;;5054455;28;20100;-68
2022/04/17 04:46:56;;;;;;;12.35;7.55;;;4.20;99.90;;;;;;5053944;28;20053;-68
2022/04/17 04:49:31;;;;;;;10.23;7.68;;;4.20;99.90;;;;;;5053628;28;20114;-69
2022/04/17 04:51:58;;;;;;;11.55;8.35;;;4.20;99.90;;;;;;5055352;28;20087;-69
2022/04/17 04:54:26;;;;;;;14.57;8.05;;;4.20;99.90;;;;;;5053393;28;20084;-69
2022/04/17 04:56:53;;;;;;;12.65;8.52;;;4.30;99.90;;;;;;5053871;28;20064;-69
2022/04/17 04:59:22;;;;;;;12.20;8.30;;;4.30;99.90;;;;;;5054991;28;20085;-69
2022/04/17 05:01:48;;;;;;;12.02;8.15;;;4.40;99.90;;;;;;5053321;28;20150;-69
2022/04/17 05:04:15;;;;;;;9.48;7.53;;;4.40;99.90;;;;;;5054020;28;20156;-69
2022/04/17 05:06:43;;;;;;;12.32;8.55;;;4.50;99.90;;;;;;5053554;28;20386;-70
2022/04/17 05:09:10;;;;;;;11.25;7.78;;;4.50;99.90;;;;;;5055052;28;20112;-69
2022/04/17 05:11:38;;;;;;;9.93;7.97;;;4.60;99.90;;;;;;5053694;28;20480;-69
2022/04/17 05:14:06;;;;;;;11.65;7.30;;;4.70;99.90;;;;;;5052978;28;20049;-69
2022/04/17 05:16:35;;;;;;;11.07;8.05;;;4.70;99.90;;;;;;5054960;28;20527;-69
2022/04/17 05:21:46;;;;;;;12.13;8.50;;;4.80;99.90;;;;;;5052533;28;20107;-70
2022/04/17 05:24:13;;;;;;;;;;;4.90;99.90;;;;;;5054175;28;20060;-69
2022/04/17 05:26:40;;;;;;;14.57;8.57;;;4.90;99.90;;;;;;5054365;28;19963;-69
2022/04/17 05:29:06;;;;;;;16.27;8.50;;;4.90;99.90;;;;;;5052706;28;20080;-69
2022/04/17 05:31:34;;;;;;;11.73;8.32;;;5.00;99.90;;;;;;5053382;28;20059;-69
2022/04/17 05:34:01;;;;;;;13.70;8.70;;;5.00;99.90;;;;;;5053206;28;20053;-68
2022/04/17 05:36:28;;;;;;;10.73;7.63;;;5.10;99.90;;;;;;5052821;28;20080;-69
2022/04/17 05:38:56;;;;;;;12.35;8.30;;;5.20;99.90;;;;;;5054439;28;20106;-69
2022/04/17 05:41:24;;;;;;;13.80;8.98;;;5.20;99.90;;;;;;5052822;28;20056;-69
2022/04/17 05:43:51;;;;;;;13.85;8.75;;;5.30;99.90;;;;;;5052836;28;20048;-69
2022/04/17 05:46:18;;;;;;;11.20;8.52;;;5.40;99.90;;;;;;5053174;28;20143;-69
2022/04/17 05:48:47;;;;;;;11.90;8.45;;;5.50;99.90;;;;;;5052492;28;20088;-69
2022/04/17 05:51:14;;;;;;;11.63;8.07;;;5.60;99.90;;;;;;5054015;28;20053;-69
2022/04/17 05:53:41;;;;;;;11.18;8.70;;;5.70;99.90;;;;;;5054305;28;20075;-69
2022/04/17 05:56:08;;;;;;;13.88;8.68;;;5.80;99.90;;;;;;5052105;28;20088;-71
2022/04/17 05:58:35;;;;;;;11.98;8.35;;;6.00;99.90;;;;;;5052805;28;20521;-71
2022/04/17 06:01:03;;;;;;;11.25;8.68;;;6.20;99.90;;;;;;5053151;28;20052;-70
2022/04/17 06:03:29;;;;;;;13.95;9.10;;;6.30;99.90;;;;;;5053334;28;20049;-70
2022/04/17 06:05:58;;;;;;;15.10;8.80;;;6.50;99.90;;;;;;5054131;28;20048;-70
2022/04/17 06:08:25;;;;;;;12.30;9.15;;;6.70;99.90;;;;;;5053847;28;20053;-70
2022/04/17 06:10:51;;;;;;;11.23;7.60;;;6.90;99.90;;;;;;5053032;28;20047;-70
2022/04/17 06:13:19;;;;;;;11.25;8.38;;;7.30;99.90;;;;;;5053773;28;20045;-71
2022/04/17 06:15:46;;;;;;;11.13;8.00;;;7.80;99.90;;;;;;5052550;28;20052;-71
2022/04/17 06:18:12;;;;;;;12.98;9.02;;;8.20;99.90;;;;;;5053409;28;20123;-70
2022/04/17 06:20:39;;;;;;;11.63;8.57;;;8.80;99.90;;;;;;5051987;28;20095;-70
2022/04/17 06:23:07;;;;;;;10.45;7.85;;;9.30;99.20;;;;;;5053674;28;20431;-71
2022/04/17 06:25:34;;;;;;;11.57;8.52;;;9.90;98.30;;;;;;5052382;28;20103;-70
2022/04/17 06:28:01;;;;;;;13.02;8.50;;;10.50;96.60;;;;;;5053631;28;20053;-71
2022/04/17 06:30:28;;;;;;;11.40;8.35;;;11.00;95.20;;;;;;5053248;28;20103;-70
2022/04/17 06:32:56;;;;;;;10.68;7.75;;;11.60;94.20;;;;;;5052986;28;20147;-71
2022/04/17 06:35:23;;;;;;;14.85;8.23;;;12.10;92.70;;;;;;5052254;28;20064;-71
2022/04/17 06:37:51;;;;;;;12.52;8.43;;;12.50;91.80;;;;;;5052176;28;20546;-71
2022/04/17 06:40:20;;;;;;;12.90;8.00;;;13.00;91.10;;;;;;5047166;28;20037;-70
2022/04/17 06:42:48;;;;;;;9.80;7.82;;;13.50;90.40;;;;;;5048465;28;20147;-71
2022/04/17 06:45:16;;;;;;;10.82;7.72;;;13.90;88.80;;;;;;5051575;28;20072;-71
2022/04/17 06:47:43;;;;;;;12.00;8.07;;;14.30;86.50;;;;;;5050403;28;20136;-71
2022/04/17 06:50:10;;;;;;;12.52;9.02;;;14.60;84.60;;;;;;5051411;28;20151;-71
2022/04/17 06:52:37;;;;;;;10.73;7.93;;;14.80;82.70;;;;;;5050682;28;20414;-71
2022/04/17 06:55:06;;;;;;;10.20;7.97;;;15.20;81.50;;;;;;5048612;28;20221;-71
2022/04/17 06:57:34;;;;;;;10.98;7.85;;;15.40;80.10;;;;;;5051833;28;20053;-72
2022/04/17 07:00:06;;;;;;;12.00;8.57;;;15.50;78.40;;;;;;5049191;28;20464;-72
2022/04/17 07:02:33;;;;;;;11.77;7.43;;;15.90;76.80;;;;;;5051766;28;20144;-72
2022/04/17 07:05:00;;;;;;;10.52;8.02;;;16.20;77.00;;;;;;5050402;28;20079;-72
2022/04/17 07:07:27;;;;;;;11.60;7.53;;;16.20;74.60;;;;;;5046220;28;20132;-71
2022/04/17 07:09:54;;;;;;;11.70;8.65;;;16.60;76.60;;;;;;5052193;28;20128;-72
2022/04/17 07:12:21;;;;;;;10.90;7.97;;;16.70;73.70;;;;;;5050122;28;20102;-72
2022/04/17 07:14:49;;;;;;;9.60;7.72;;;17.20;73.40;;;;;;5049887;28;20415;-72
2022/04/17 07:17:16;;;;;;;10.63;7.43;;;17.50;71.60;;;;;;5049974;28;20049;-72
2022/04/17 07:19:44;;;;;;;10.27;8.18;;;17.80;71.70;;;;;;5051613;28;20236;-72
2022/04/17 07:22:13;;;;;;;12.98;8.15;;;18.10;70.50;;;;;;5051523;28;20147;-73
2022/04/17 07:24:40;;;;;;;11.02;8.00;;;18.30;69.60;;;;;;5050016;28;20057;-73
2022/04/17 07:27:09;;;;;;;10.65;6.88;;;18.50;68.80;;;;;;5051222;28;20060;-73
2022/04/17 07:29:36;;;;;;;9.25;7.28;;;18.70;68.10;;;;;;5049894;28;20513;-73
2022/04/17 07:32:05;;;;;;;12.40;7.35;;;19.00;67.30;;;;;;5049808;28;20103;-73
2022/04/17 07:34:32;;;;;;;10.02;7.47;;;19.30;65.50;;;;;;5050424;28;20508;-73
2022/04/17 07:36:59;;;;;;;10.32;7.13;;;19.30;65.10;;;;;;5050873;28;20093;-73
2022/04/17 07:39:25;;;;;;;10.20;7.03;;;19.30;64.70;;;;;;5050456;28;20060;-73
2022/04/17 07:41:52;;;;;;;9.25;7.40;;;19.30;63.60;;;;;;5049482;28;20465;-73
2022/04/17 07:44:19;;;;;;;9.68;7.25;;;19.30;63.50;;;;;;5050265;28;20480;-73
2022/04/17 07:46:46;;;;;;;8.73;7.63;;;19.50;62.80;;;;;;5052002;28;20076;-73
2022/04/17 07:49:14;;;;;;;7.90;6.75;;;19.60;62.50;;;;;;5048931;28;20084;-74
2022/04/17 07:51:41;;;;;;;9.00;6.88;;;19.70;61.40;;;;;;5050893;28;20049;-73
2022/04/17 07:54:07;;;;;;;10.85;6.85;;;20.00;62.10;;;;;;5050251;28;20088;-73
2022/04/17 07:56:34;;;;;;;12.35;7.70;;;19.90;61.00;;;;;;5050091;28;20084;-73
2022/04/17 07:59:01;;;;;;;9.65;7.13;;;20.40;61.30;;;;;;5051149;28;20056;-73
2022/04/17 08:01:30;;;;;;;10.77;7.13;;;20.50;60.40;;;;;;5050242;28;20068;-73
2022/04/17 08:03:57;;;;;;;8.93;6.93;;;20.70;59.80;;;;;;5052219;28;20128;-73
2022/04/17 08:06:25;;;;;;;8.98;5.85;;;20.80;59.80;;;;;;5049598;28;20445;-73
2022/04/17 08:08:52;;;;;;;9.82;7.63;;;20.80;59.70;;;;;;5051316;28;20044;-73
2022/04/17 08:11:19;;;;;;;8.90;6.88;;;21.00;59.60;;;;;;5050344;28;20516;-73
2022/04/17 08:13:47;;;;;;;7.93;6.25;;;21.00;58.90;;;;;;5050104;28;20049;-72
2022/04/17 08:16:14;;;;;;;8.93;6.75;;;21.30;58.50;;;;;;5050865;28;20049;-73
2022/04/17 08:18:42;;;;;;;8.80;6.63;;;21.20;57.20;;;;;;5050352;28;20084;-73
2022/04/17 08:21:09;;;;;;;8.13;6.40;;;21.00;57.20;;;;;;5050993;28;20041;-73
2022/04/17 08:23:37;;;;;;;7.68;6.25;;;21.10;56.80;;;;;;5050134;28;20484;-73
2022/04/17 08:26:05;;;;;;;9.90;6.88;;;21.30;56.60;;;;;;5052948;28;20072;-72
2022/04/17 08:28:32;;;;;;;9.30;6.65;;;21.60;56.10;;;;;;5054380;28;20087;-73
2022/04/17 08:30:59;;;;;;;7.80;6.32;;;21.70;56.10;;;;;;5054059;28;20462;-73
2022/04/17 08:33:26;;;;;;;8.40;6.18;;;21.90;55.60;;;;;;5053264;28;20099;-73
2022/04/17 08:35:54;;;;;;;7.45;6.03;;;22.20;55.30;;;;;;5053313;28;20400;-73
2022/04/17 08:38:22;;;;;;;7.53;6.07;;;22.10;54.60;;;;;;5054345;28;20053;-73
2022/04/17 08:40:51;;;;;;;6.78;6.00;;;22.20;54.80;;;;;;5054316;28;20053;-74
2022/04/17 08:43:22;;;;;;;6.68;5.70;;;22.50;54.50;;;;;;5052724;28;20073;-73
2022/04/17 08:45:50;;;;;;;9.40;5.57;;;22.60;53.40;;;;;;5054359;28;20059;-74
2022/04/17 08:48:18;;;;;;;8.40;6.38;;;22.50;53.80;;;;;;5053227;28;20472;-74
2022/04/17 08:50:47;;;;;;;8.55;5.90;;;22.60;53.90;;;;;;5053376;28;20045;-74
2022/04/17 08:53:16;;;;;;;6.43;5.20;;;22.70;53.10;;;;;;5053442;28;20055;-73
2022/04/17 08:55:44;;;;;;;7.07;5.05;;;22.70;51.70;;;;;;5054438;28;20080;-73
2022/04/17 08:58:12;;;;;;;6.25;5.13;;;22.80;52.00;;;;;;5052986;28;20057;-73
2022/04/17 09:00:40;;;;;;;6.90;5.20;;;23.20;51.50;;;;;;5038072;28;20492;-74
2022/04/17 09:03:09;;;;;;;7.68;5.40;;;23.20;51.20;;;;;;5055781;28;20064;-74
2022/04/17 09:05:38;;;;;;;7.07;5.43;;;23.40;51.10;;;;;;5054876;28;20526;-74
2022/04/17 09:08:16;;;;;;;7.15;4.90;;;23.70;51.00;;;;;;5054286;28;20047;-74
2022/04/17 09:10:53;;;;;;;7.05;5.13;;;23.80;50.00;;;;;;5048821;28;20037;-75
2022/04/17 09:13:29;;;;;;;6.72;5.20;;;23.90;48.80;;;;;;5048291;28;20049;-75
2022/04/17 09:15:56;;;;;;;7.03;5.63;;;23.70;48.10;;;;;;5042858;28;20063;-75
2022/04/17 09:18:23;;;;;;;10.38;5.45;;;23.50;49.40;;;;;;5052624;28;20045;-72
2022/04/17 09:20:50;;;;;;;6.07;4.70;;;23.70;48.90;;;;;;5050958;28;20044;-74
2022/04/17 09:23:33;;;;;;;6.72;5.50;;;23.60;49.00;;;;;;5051823;28;20211;-76
2022/04/17 09:26:00;;;;;;;7.57;5.70;;;23.60;49.20;;;;;;5051435;28;20049;-75
2022/04/17 09:28:33;;;;;;;6.85;4.97;;;23.60;49.40;;;;;;5051565;28;20052;-74
2022/04/17 09:31:01;;;;;;;9.50;6.22;;;23.70;48.40;;;;;;5052114;28;20110;-74
2022/04/17 09:33:37;;;;;;;8.38;7.22;;;23.70;48.70;;;;;;5053439;28;20118;-74
2022/04/17 09:36:05;;;;;;;7.75;5.28;;;23.90;48.10;;;;;;5051348;28;20049;-75
2022/04/17 09:38:34;;;;;;;8.30;5.43;;;24.20;48.60;;;;;;5052152;28;20052;-74
2022/04/17 09:41:09;;;;;;;8.32;5.40;;;24.20;48.40;;;;;;5051351;28;20053;-75
2022/04/17 09:43:38;;;;;;;6.15;5.00;;;24.50;48.40;;;;;;5052824;28;20056;-75
2022/04/17 09:46:05;;;;;;;6.63;5.43;;;24.60;47.30;;;;;;5052564;28;20083;-75
2022/04/17 09:48:34;;;;;;;6.35;5.03;;;24.90;47.30;;;;;;5051191;28;20501;-75
2022/04/17 09:51:02;;;;;;;5.68;3.95;;;24.80;47.20;;;;;;5051939;28;20535;-75
2022/04/17 09:53:33;;;;;;;8.75;6.03;;;25.00;46.50;;;;;;5052902;28;20099;-75
2022/04/17 09:56:08;;;;;;;5.72;4.32;;;24.80;46.10;;;;;;5051988;28;20644;-72
2022/04/17 09:58:38;;;;;;;5.97;5.15;;;25.20;45.90;;;;;;5051145;28;20049;-75
2022/04/17 10:01:06;;;;;;;5.65;4.30;;;25.00;45.80;;;;;;5052432;28;20076;-75
2022/04/17 10:03:36;;;;;;;6.85;4.63;;;24.70;46.70;;;;;;5049677;28;20055;-76
2022/04/17 10:06:03;;;;;;;7.05;4.68;;;24.90;46.10;;;;;;5052239;28;20530;-75
2022/04/17 10:08:32;;;;;;;6.35;4.47;;;25.40;45.30;;;;;;5051667;28;20076;-76
2022/04/17 10:11:01;;;;;;;4.57;3.92;;;25.60;45.80;;;;;;5052108;28;20136;-76
2022/04/17 10:13:29;;;;;;;5.05;3.75;;;25.50;45.00;;;;;;5053307;28;20048;-75
2022/04/17 10:15:59;;;;;;;4.22;3.30;;;25.40;44.80;;;;;;5051413;28;20088;-75
2022/04/17 10:18:33;;;;;;;6.03;3.65;;;25.80;44.60;;;;;;5052327;28;20084;-75
2022/04/17 10:21:00;;;;;;;7.63;4.45;;;26.10;44.10;;;;;;5052240;28;20049;-75
2022/04/17 10:23:28;;;;;;;6.47;4.22;;;25.80;44.20;;;;;;5051810;28;20432;-75
2022/04/17 10:25:58;;;;;;;6.63;4.38;;;25.70;43.90;;;;;;5050052;28;20096;-75
2022/04/17 10:28:29;;;;;;;5.10;4.00;;;25.80;44.30;;;;;;5051701;28;20085;-76
2022/04/17 10:31:09;;;;;;;7.25;4.65;;;25.70;44.90;;;;;;5051410;28;20136;-73
2022/04/17 10:33:51;;;;;;;8.32;4.22;;;25.90;44.40;;;;;;5051193;28;20080;-73
2022/04/17 10:36:29;;;;;;;5.40;4.40;;;25.30;43.50;;;;;;5052053;28;20135;-73
2022/04/17 10:39:11;;;;;;;7.30;4.40;;;25.70;43.70;;;;;;5067640;28;20492;-73
2022/04/17 10:41:39;;;;;;;7.05;4.70;;;26.10;44.20;;;;;;5050254;28;20089;-74
2022/04/17 10:44:06;;;;;;;5.93;4.40;;;26.40;45.40;;;;;;5042793;28;20472;-74
2022/04/17 10:46:48;;;;;;;5.70;4.50;;;26.80;44.10;;;;;;5048734;28;20448;-73
2022/04/17 10:49:19;;;;;;;6.13;4.38;;;26.50;42.40;;;;;;5051011;28;20048;-73
2022/04/17 10:51:54;;;;;;;4.82;4.22;;;26.10;43.50;;;;;;5050555;28;20397;-73
2022/04/17 10:54:21;;;;;;;5.20;4.20;;;26.60;42.50;;;;;;5059554;28;20084;-71
2022/04/17 10:57:02;;;;;;;5.38;4.47;;;26.60;43.60;;;;;;5051533;28;20080;-73
2022/04/17 10:59:30;;;;;;;6.57;4.40;;;26.30;43.30;;;;;;5050795;28;20056;-66
2022/04/17 11:02:04;;;;;;;5.70;4.40;;;26.30;43.90;;;;;;5050163;28;20500;-59
2022/04/17 11:04:32;;;;;;;7.28;5.03;;;26.20;43.70;;;;;;5051632;28;20059;-62
2022/04/17 11:07:22;;;;;;;6.93;4.07;;;25.80;43.60;;;;;;5050476;28;20124;-59
2022/04/17 11:10:05;;;;;;;7.05;4.35;;;26.50;42.30;;;;;;5050971;28;20102;-59
2022/04/17 11:12:45;;;;;;;7.50;4.93;;;26.20;43.80;;;;;;5049005;28;20572;-62
2022/04/17 11:15:29;;;;;;;6.50;4.88;;;26.70;43.40;;;;;;5047912;28;20136;-62
2022/04/17 11:18:05;;;;;;;5.55;4.13;;;26.80;42.20;;;;;;5050346;28;20056;-72
2022/04/17 11:20:33;;;;;;;5.70;4.32;;;26.70;42.20;;;;;;5050336;28;20659;-61
2022/04/17 11:23:00;;;;;;;5.47;4.38;;;26.70;43.40;;;;;;5050752;28;20523;-62
2022/04/17 11:25:30;;;;;;;5.30;4.25;;;26.80;43.20;;;;;;5051410;28;20060;-63
2022/04/17 11:28:02;;;;;;;5.88;4.32;;;27.10;42.20;;;;;;5051828;28;20052;-62
2022/04/17 11:30:34;;;;;;;5.85;4.20;;;26.90;42.70;;;;;;5050001;28;20053;-64
2022/04/17 11:33:05;;;;;;;6.38;4.20;;;26.50;43.00;;;;;;5050712;28;20512;-58
2022/04/17 11:35:32;;;;;;;5.28;4.22;;;26.70;42.50;;;;;;5050270;28;20134;-62
2022/04/17 11:38:02;;;;;;;6.95;4.35;;;26.70;42.70;;;;;;5050588;28;20088;-62
2022/04/17 11:40:35;;;;;;;5.32;4.47;;;27.30;43.70;;;;;;5050535;28;20132;-59
2022/04/17 11:43:10;;;;;;;5.78;4.55;;;27.00;43.30;;;;;;5051488;28;20087;-61
2022/04/17 11:45:38;;;;;;;5.95;4.07;;;27.40;42.70;;;;;;5050472;28;20073;-62
2022/04/17 11:48:09;;;;;;;6.00;4.50;;;27.40;43.30;;;;;;5050318;28;20085;-59
2022/04/17 11:50:36;;;;;;;6.15;4.03;;;27.60;42.50;;;;;;5050352;28;20045;-59
2022/04/17 11:53:05;;;;;;;4.85;4.00;;;27.00;43.60;;;;;;5049290;28;20092;-59
2022/04/17 11:55:33;;;;;;;5.88;3.90;;;27.00;43.70;;;;;;5050044;28;20076;-59
2022/04/17 11:58:00;;;;;;;5.10;3.15;;;27.10;44.00;;;;;;5050015;28;20124;-59
2022/04/17 12:00:28;;;;;;;4.50;3.20;;;27.10;43.60;;;;;;5053912;28;20049;-60
2022/04/17 12:02:57;;;;;;;6.03;3.20;;;27.20;44.00;;;;;;5052137;28;20084;-60
2022/04/17 12:05:26;;;;;;;5.32;3.10;;;27.40;43.30;;;;;;5054069;28;20171;-60
2022/04/17 12:08:04;;;;;;;5.25;3.20;;;27.10;42.90;;;;;;5054514;28;20134;-60
2022/04/17 12:10:31;;;;;;;4.53;3.30;;;27.00;43.40;;;;;;5052437;28;20049;-60
2022/04/17 12:12:58;;;;;;;4.05;2.92;;;27.30;42.30;;;;;;5054819;28;20041;-60
2022/04/17 12:15:25;;;;;;;3.83;2.65;;;27.00;42.60;;;;;;5054082;28;20128;-60
2022/04/17 12:18:00;;;;;;;4.07;2.95;;;27.30;42.50;;;;;;5052519;28;20094;-60
2022/04/17 12:20:28;;;;;;;4.00;2.63;;;27.70;43.30;;;;;;5054182;28;20465;-61
2022/04/17 12:22:55;;;;;;;6.10;3.47;;;27.30;42.80;;;;;;5053725;28;20483;-60
2022/04/17 12:25:24;;;;;;;6.05;3.03;;;27.30;42.10;;;;;;5054025;28;20079;-62
2022/04/17 12:27:52;;;;;;;4.68;3.25;;;27.30;41.50;;;;;;5053047;28;20147;-59
2022/04/17 12:30:20;;;;;;;4.80;3.42;;;27.10;41.50;;;;;;5051435;28;20400;-59
2022/04/17 12:32:48;;;;;;;4.43;3.10;;;26.90;41.50;;;;;;5054706;28;20048;-60
2022/04/17 12:35:23;;;;;;;6.68;3.20;;;26.90;42.10;;;;;;5052758;28;20073;-60
2022/04/17 12:38:02;;;;;;;4.03;2.92;;;26.40;41.60;;;;;;5053329;28;20084;-60
2022/04/17 12:40:29;;;;;;;4.95;3.50;;;26.80;42.50;;;;;;5053993;28;20063;-61
2022/04/17 12:43:15;;;;;;;5.45;3.40;;;27.00;42.10;;;;;;5054479;28;20083;-61
2022/04/17 12:45:53;;;;;;;5.90;3.17;;;27.20;42.30;;;;;;5050650;28;20140;-61
2022/04/17 12:48:26;;;;;;;6.55;3.78;;;26.80;43.00;;;;;;5049997;28;20045;-60
2022/04/17 12:51:02;;;;;;;6.18;4.50;;;27.10;42.70;;;;;;5053062;28;20432;-60
2022/04/17 12:53:36;;;;;;;4.57;3.47;;;26.80;41.80;;;;;;5049920;28;20052;-61
2022/04/17 12:56:03;;;;;;;6.13;3.85;;;26.80;42.00;;;;;;5052308;28;20045;-60
2022/04/17 12:58:45;;;;;;;9.63;3.50;;;27.10;42.30;;;;;;5052304;28;20040;-60
2022/04/17 13:01:19;;;;;;;5.75;3.53;;;26.80;41.50;;;;;;5052608;28;20052;-60
2022/04/17 13:03:46;;;;;;;6.03;3.67;;;26.30;41.50;;;;;;5053881;28;20060;-60
2022/04/17 13:06:19;;;;;;;4.47;3.78;;;26.10;42.50;;;;;;5050828;28;20143;-60